Time;durP1;ratioP1;P1;durP2;ratioP2;P2;SDS_P1;SDS_P2;PMS_P1;PMS_P2;Temp;Humidity;BMP_temperature;BMP_pressure;BME280_temperature;BME280_humidity;BME280_pressure;Samples;Min_cycle;Max_cycle;Signal;HPM_P1;HPM_P2
2021/06/06 00:01:18;;;;;;;82.93;58.70;;;15.00;99.90;;;;;;4982088;28;20497;-63
2021/06/06 00:03:47;;;;;;;80.43;56.03;;;15.00;99.90;;;;;;4974684;28;20474;-63
2021/06/06 00:06:17;;;;;;;91.40;63.70;;;14.90;99.90;;;;;;4961852;28;20495;-63
2021/06/06 00:08:44;;;;;;;80.60;58.70;;;14.90;99.90;;;;;;4962241;29;20509;-63
2021/06/06 00:11:14;;;;;;;88.13;61.50;;;14.90;99.90;;;;;;4962903;29;20962;-63
2021/06/06 00:13:44;;;;;;;93.87;65.10;;;14.90;99.90;;;;;;4962078;29;20448;-63
2021/06/06 00:16:16;;;;;;;86.27;60.37;;;14.90;99.90;;;;;;4962832;29;20462;-63
2021/06/06 00:18:43;;;;;;;70.30;53.63;;;14.90;99.90;;;;;;4962805;29;20494;-63
2021/06/06 00:21:11;;;;;;;76.03;54.83;;;14.80;99.90;;;;;;4962170;29;20646;-63
2021/06/06 00:23:42;;;;;;;77.17;55.63;;;14.90;99.90;;;;;;4962198;29;20520;-63
2021/06/06 00:26:12;;;;;;;74.13;53.73;;;14.90;99.90;;;;;;4962632;29;20470;-63
2021/06/06 00:28:38;;;;;;;81.33;55.43;;;14.90;99.90;;;;;;4962489;29;20458;-63
2021/06/06 00:31:07;;;;;;;81.17;56.40;;;14.80;99.90;;;;;;4962437;29;20777;-62
2021/06/06 00:33:35;;;;;;;86.40;57.37;;;14.70;99.90;;;;;;4961960;29;20929;-62
2021/06/06 00:36:01;;;;;;;111.97;73.10;;;14.70;99.90;;;;;;4962419;29;20474;-62
2021/06/06 00:38:28;;;;;;;136.67;78.60;;;14.50;99.90;;;;;;4962273;29;20919;-62
2021/06/06 00:40:58;;;;;;;116.90;75.70;;;14.60;99.90;;;;;;4961969;29;20441;-62
2021/06/06 00:43:25;;;;;;;105.13;66.50;;;14.50;99.90;;;;;;4961986;29;20525;-62
2021/06/06 00:45:51;;;;;;;96.60;65.53;;;14.60;99.90;;;;;;4961970;29;20748;-63
2021/06/06 00:48:18;;;;;;;101.27;63.97;;;14.50;99.90;;;;;;4962134;29;20906;-63
2021/06/06 00:50:47;;;;;;;103.13;67.67;;;14.60;99.90;;;;;;4961716;29;20468;-63
2021/06/06 00:53:20;;;;;;;92.43;61.27;;;14.40;99.90;;;;;;4961680;29;20904;-63
2021/06/06 00:55:47;;;;;;;106.47;66.87;;;14.50;99.90;;;;;;4961757;29;20466;-63
2021/06/06 00:58:16;;;;;;;106.90;67.97;;;14.50;99.90;;;;;;4962095;29;20473;-63
2021/06/06 01:00:46;;;;;;;110.73;68.90;;;14.40;99.90;;;;;;4961836;29;20441;-63
2021/06/06 01:03:13;;;;;;;101.67;64.00;;;14.40;99.90;;;;;;4962237;29;20946;-63
2021/06/06 01:05:44;;;;;;;93.03;62.50;;;14.40;99.90;;;;;;4955297;28;20461;-63
2021/06/06 01:08:13;;;;;;;90.97;56.93;;;14.40;99.90;;;;;;4960573;28;20466;-63
2021/06/06 01:10:40;;;;;;;90.90;57.20;;;14.30;99.90;;;;;;4961936;29;20459;-63
2021/06/06 01:13:13;;;;;;;96.70;60.87;;;14.30;99.90;;;;;;4961794;29;20930;-63
2021/06/06 01:15:43;;;;;;;122.83;67.80;;;14.20;99.90;;;;;;4961155;29;20517;-63
2021/06/06 01:18:22;;;;;;;124.10;67.60;;;14.30;99.90;;;;;;4961392;29;20853;-63
2021/06/06 01:21:00;;;;;;;110.63;67.37;;;14.40;99.90;;;;;;4942146;29;20471;-63
2021/06/06 01:23:35;;;;;;;115.20;66.83;;;14.40;99.90;;;;;;4949720;29;20458;-63
2021/06/06 01:26:08;;;;;;;123.90;67.00;;;14.30;99.90;;;;;;4954981;29;20472;-63
2021/06/06 01:28:41;;;;;;;126.63;68.73;;;14.20;99.90;;;;;;4961489;29;20462;-63
2021/06/06 01:31:10;;;;;;;134.57;70.77;;;14.30;99.90;;;;;;4961673;28;20473;-63
2021/06/06 01:33:43;;;;;;;140.97;72.50;;;14.20;99.90;;;;;;4961324;29;20506;-63
2021/06/06 01:36:14;;;;;;;156.47;79.77;;;14.30;99.90;;;;;;4960947;28;20530;-63
2021/06/06 01:38:46;;;;;;;146.87;74.50;;;14.20;99.90;;;;;;4961301;29;20506;-63
2021/06/06 01:41:18;;;;;;;158.97;82.70;;;14.20;99.90;;;;;;4960946;29;20463;-63
2021/06/06 01:43:48;;;;;;;167.67;80.03;;;14.20;99.90;;;;;;4961253;29;20474;-63
2021/06/06 01:46:19;;;;;;;167.27;82.60;;;14.20;99.90;;;;;;4941707;29;20912;-63
2021/06/06 01:48:46;;;;;;;153.67;80.23;;;14.20;99.90;;;;;;4942014;29;20863;-63
2021/06/06 01:51:18;;;;;;;176.70;86.70;;;14.10;99.90;;;;;;4941483;29;20520;-63
2021/06/06 01:53:47;;;;;;;161.63;84.30;;;14.20;99.90;;;;;;4941762;29;20924;-63
2021/06/06 01:56:20;;;;;;;144.50;77.47;;;14.20;99.90;;;;;;4941479;29;20519;-63
2021/06/06 01:58:51;;;;;;;139.70;76.87;;;14.20;99.90;;;;;;4942248;29;20497;-63
2021/06/06 02:01:21;;;;;;;146.10;77.47;;;14.30;99.90;;;;;;4941249;29;20475;-63
2021/06/06 02:03:50;;;;;;;146.90;77.67;;;14.30;99.90;;;;;;4945766;28;20460;-63
2021/06/06 02:06:19;;;;;;;133.57;75.03;;;14.30;99.90;;;;;;4978696;28;20450;-63
2021/06/06 02:08:50;;;;;;;133.10;75.40;;;14.20;99.90;;;;;;4979632;28;20446;-63
2021/06/06 02:11:24;;;;;;;135.73;75.00;;;14.30;99.90;;;;;;4979606;28;20487;-63
2021/06/06 02:13:55;;;;;;;128.50;71.43;;;14.40;99.90;;;;;;4979630;28;20461;-63
2021/06/06 02:16:24;;;;;;;130.53;73.57;;;14.40;99.90;;;;;;4979809;28;20534;-63
2021/06/06 02:18:51;;;;;;;127.63;72.63;;;14.30;99.90;;;;;;4979430;28;20493;-63
2021/06/06 02:21:19;;;;;;;119.27;70.60;;;14.30;99.90;;;;;;4979144;28;20521;-63
2021/06/06 02:23:48;;;;;;;112.80;69.03;;;14.20;99.90;;;;;;4979843;28;20440;-63
2021/06/06 02:26:22;;;;;;;115.63;69.13;;;14.20;99.90;;;;;;4979745;28;20466;-63
2021/06/06 02:28:59;;;;;;;107.77;67.73;;;14.20;99.90;;;;;;4980059;28;20466;-63
2021/06/06 02:31:31;;;;;;;119.53;72.00;;;14.10;99.90;;;;;;4979388;28;20476;-62
2021/06/06 02:34:06;;;;;;;125.67;75.47;;;14.20;99.90;;;;;;4979699;28;20911;-63
2021/06/06 02:36:36;;;;;;;128.27;73.43;;;14.20;99.90;;;;;;4979489;28;20468;-62
2021/06/06 02:39:09;;;;;;;134.30;79.40;;;14.10;99.90;;;;;;4979182;28;20494;-63
2021/06/06 02:41:45;;;;;;;149.97;87.67;;;14.10;99.90;;;;;;4979146;28;20551;-63
2021/06/06 02:44:15;;;;;;;144.73;84.07;;;14.10;99.90;;;;;;4979970;28;20510;-62
2021/06/06 02:46:43;;;;;;;153.60;90.03;;;13.90;99.90;;;;;;4979589;28;20470;-63
2021/06/06 02:49:15;;;;;;;147.93;87.80;;;13.90;99.90;;;;;;4979531;28;20536;-63
2021/06/06 02:51:44;;;;;;;158.63;90.03;;;13.90;99.90;;;;;;4979420;28;20466;-63
2021/06/06 02:54:16;;;;;;;151.77;91.87;;;13.90;99.90;;;;;;4979303;28;20447;-62
2021/06/06 02:56:48;;;;;;;169.47;92.97;;;13.90;99.90;;;;;;4979324;28;20469;-62
2021/06/06 02:59:19;;;;;;;152.47;93.70;;;14.00;99.90;;;;;;4979235;28;20493;-62
2021/06/06 03:01:49;;;;;;;158.57;85.10;;;14.00;99.90;;;;;;4978545;28;20444;-63
2021/06/06 03:04:20;;;;;;;135.53;77.37;;;14.00;99.90;;;;;;4968248;28;20931;-62
2021/06/06 03:06:51;;;;;;;108.33;67.00;;;14.00;99.90;;;;;;4959522;29;20518;-62
2021/06/06 03:09:23;;;;;;;91.10;57.43;;;14.00;99.90;;;;;;4959173;29;20467;-62
2021/06/06 03:11:53;;;;;;;97.83;59.03;;;13.90;99.90;;;;;;4959147;29;20515;-62
2021/06/06 03:14:24;;;;;;;85.07;55.57;;;13.90;99.90;;;;;;4959278;29;20557;-62
2021/06/06 03:16:56;;;;;;;88.70;57.63;;;13.80;99.90;;;;;;4959456;29;20491;-62
2021/06/06 03:19:25;;;;;;;90.03;56.80;;;13.80;99.90;;;;;;4959545;29;20959;-63
2021/06/06 03:21:52;;;;;;;95.00;60.10;;;13.80;99.90;;;;;;4959021;29;20887;-63
2021/06/06 03:24:24;;;;;;;107.50;61.10;;;13.80;99.90;;;;;;4959461;29;20844;-63
2021/06/06 03:26:53;;;;;;;94.87;54.83;;;13.80;99.90;;;;;;4959496;29;20467;-63
2021/06/06 03:29:24;;;;;;;105.47;64.07;;;13.70;99.90;;;;;;4959660;29;20472;-63
2021/06/06 03:31:54;;;;;;;114.93;63.40;;;13.70;99.90;;;;;;4958411;28;20781;-63
2021/06/06 03:34:20;;;;;;;117.43;62.23;;;13.80;99.90;;;;;;4959305;29;20537;-63
2021/06/06 03:36:48;;;;;;;99.90;59.90;;;13.80;99.90;;;;;;4959366;29;20981;-63
2021/06/06 03:39:17;;;;;;;100.20;57.63;;;13.80;99.90;;;;;;4958697;29;20494;-63
2021/06/06 03:41:45;;;;;;;107.80;58.17;;;13.80;99.90;;;;;;4958861;29;20481;-63
2021/06/06 03:44:13;;;;;;;104.93;58.03;;;13.80;99.90;;;;;;4959858;29;20501;-63
2021/06/06 03:46:40;;;;;;;101.23;57.40;;;13.80;99.90;;;;;;4959409;29;20930;-63
2021/06/06 03:49:08;;;;;;;113.90;58.40;;;13.80;99.90;;;;;;4958977;29;20463;-62
2021/06/06 03:51:36;;;;;;;109.70;58.90;;;13.90;99.90;;;;;;4959256;29;20880;-63
2021/06/06 03:54:03;;;;;;;108.67;62.00;;;13.80;99.90;;;;;;4959020;29;20470;-63
2021/06/06 03:56:30;;;;;;;115.50;62.60;;;13.80;99.90;;;;;;4959342;29;20466;-63
2021/06/06 03:58:57;;;;;;;102.13;58.90;;;13.80;99.90;;;;;;4959007;29;20561;-63
2021/06/06 04:01:25;;;;;;;107.80;60.63;;;13.80;99.90;;;;;;4958790;29;20471;-63
2021/06/06 04:03:52;;;;;;;94.20;54.73;;;13.80;99.90;;;;;;4952284;28;20825;-63
2021/06/06 04:06:19;;;;;;;88.93;51.73;;;13.80;99.90;;;;;;4956937;29;20777;-63
2021/06/06 04:08:45;;;;;;;89.03;57.30;;;13.70;99.90;;;;;;4958239;29;20425;-62
2021/06/06 04:11:13;;;;;;;75.57;49.37;;;13.80;99.90;;;;;;4958848;29;20525;-62
2021/06/06 04:13:39;;;;;;;67.93;44.97;;;13.90;99.90;;;;;;4958877;29;20508;-62
2021/06/06 04:16:06;;;;;;;74.90;47.27;;;13.80;99.90;;;;;;4958829;29;20470;-62
2021/06/06 04:18:34;;;;;;;59.73;44.27;;;13.80;99.90;;;;;;4958841;29;20490;-62
2021/06/06 04:21:04;;;;;;;60.43;43.13;;;13.80;99.90;;;;;;4958896;29;21160;-62
2021/06/06 04:23:30;;;;;;;61.90;43.33;;;13.80;99.90;;;;;;4958466;29;20736;-62
2021/06/06 04:25:57;;;;;;;54.37;39.27;;;13.90;99.90;;;;;;4958652;29;20466;-63
2021/06/06 04:28:24;;;;;;;48.90;38.00;;;13.80;99.90;;;;;;4958390;29;20463;-63
2021/06/06 04:30:52;;;;;;;50.83;38.93;;;13.80;99.90;;;;;;4958419;29;20470;-63
2021/06/06 04:33:20;;;;;;;48.30;38.67;;;13.80;99.90;;;;;;4958653;29;20506;-63
2021/06/06 04:35:48;;;;;;;50.03;40.00;;;13.70;99.90;;;;;;4958788;29;20561;-63
2021/06/06 04:38:18;;;;;;;52.30;40.07;;;13.80;99.90;;;;;;4958794;29;20464;-63
2021/06/06 04:40:44;;;;;;;50.67;39.57;;;13.80;99.90;;;;;;4958809;29;20511;-63
2021/06/06 04:43:12;;;;;;;52.50;41.60;;;13.80;99.90;;;;;;4961234;28;20474;-63
2021/06/06 04:45:38;;;;;;;54.40;42.90;;;13.90;99.90;;;;;;4961896;29;20466;-63
2021/06/06 04:48:14;;;;;;;51.63;41.87;;;13.90;99.90;;;;;;4962078;29;20463;-63
2021/06/06 04:50:42;;;;;;;56.57;42.30;;;13.80;99.90;;;;;;4961700;29;20474;-63
2021/06/06 04:53:11;;;;;;;57.17;43.03;;;13.90;99.90;;;;;;4961731;29;20887;-63
2021/06/06 04:55:37;;;;;;;57.50;42.47;;;13.90;99.90;;;;;;4961633;29;20466;-63
2021/06/06 04:58:05;;;;;;;47.97;40.50;;;13.80;99.90;;;;;;4962024;29;20493;-63
2021/06/06 05:00:34;;;;;;;55.30;41.70;;;13.80;99.90;;;;;;4961745;29;20478;-63
2021/06/06 05:03:01;;;;;;;45.43;40.00;;;13.90;99.90;;;;;;4956255;28;20473;-63
2021/06/06 05:05:27;;;;;;;55.60;41.90;;;13.80;99.90;;;;;;4959202;28;20498;-62
2021/06/06 05:07:55;;;;;;;50.80;42.20;;;13.80;99.90;;;;;;4961352;29;20514;-63
2021/06/06 05:10:25;;;;;;;46.77;39.83;;;13.80;99.90;;;;;;4961580;29;20449;-62
2021/06/06 05:12:52;;;;;;;51.53;39.90;;;13.80;99.90;;;;;;4961627;29;20466;-63
2021/06/06 05:15:20;;;;;;;48.57;39.60;;;13.80;99.90;;;;;;4961434;29;20493;-63
2021/06/06 05:17:47;;;;;;;46.40;35.43;;;13.70;99.90;;;;;;4961600;29;20509;-63
2021/06/06 05:20:15;;;;;;;46.57;36.67;;;13.80;99.90;;;;;;4961462;29;20477;-63
2021/06/06 05:22:42;;;;;;;53.50;40.80;;;13.80;99.90;;;;;;4961621;29;20463;-63
2021/06/06 05:25:10;;;;;;;54.50;41.17;;;13.80;99.90;;;;;;4961562;29;20470;-63
2021/06/06 05:27:41;;;;;;;58.57;42.77;;;13.90;99.90;;;;;;4961800;29;20863;-63
2021/06/06 05:30:11;;;;;;;57.33;42.73;;;13.90;99.90;;;;;;4961278;29;20929;-63
2021/06/06 05:32:38;;;;;;;54.73;43.93;;;13.90;99.90;;;;;;4944698;29;20486;-63
2021/06/06 05:35:06;;;;;;;55.27;42.00;;;13.90;99.90;;;;;;4960876;29;20467;-63
2021/06/06 05:37:33;;;;;;;59.97;43.20;;;13.90;99.90;;;;;;4961110;29;20502;-63
2021/06/06 05:40:01;;;;;;;48.53;41.67;;;14.00;99.90;;;;;;4960347;29;20790;-63
2021/06/06 05:42:28;;;;;;;54.70;42.80;;;13.90;99.90;;;;;;4961140;29;20474;-63
2021/06/06 05:44:55;;;;;;;52.60;40.03;;;13.90;99.90;;;;;;4960595;29;20462;-63
2021/06/06 05:47:22;;;;;;;51.97;40.43;;;14.00;99.90;;;;;;4960544;29;20477;-63
2021/06/06 05:49:49;;;;;;;57.63;43.00;;;14.00;99.90;;;;;;4960808;29;20466;-63
2021/06/06 05:52:18;;;;;;;50.50;41.17;;;14.00;99.90;;;;;;4961024;29;20467;-63
2021/06/06 05:54:45;;;;;;;56.47;38.87;;;14.00;99.90;;;;;;4960027;28;20467;-63
2021/06/06 05:57:14;;;;;;;56.77;42.23;;;14.20;99.90;;;;;;4960471;29;20470;-63
2021/06/06 05:59:41;;;;;;;53.60;43.70;;;14.20;99.90;;;;;;4960847;29;20537;-63
2021/06/06 06:02:09;;;;;;;55.27;44.07;;;14.10;99.90;;;;;;4960269;29;20467;-63
2021/06/06 06:04:35;;;;;;;55.60;43.73;;;14.20;99.90;;;;;;4953225;28;20986;-63
2021/06/06 06:07:02;;;;;;;52.77;42.63;;;14.20;99.90;;;;;;4952125;29;20521;-63
2021/06/06 06:09:29;;;;;;;55.77;43.90;;;14.20;99.90;;;;;;4960037;29;20471;-63
2021/06/06 06:11:55;;;;;;;54.27;41.87;;;14.30;99.90;;;;;;4960424;29;20470;-63
2021/06/06 06:14:24;;;;;;;59.33;42.40;;;14.20;99.90;;;;;;4959999;29;20471;-63
2021/06/06 06:16:51;;;;;;;50.53;42.10;;;14.20;99.90;;;;;;4960124;29;20470;-63
2021/06/06 06:19:19;;;;;;;52.47;42.00;;;14.20;99.90;;;;;;4960196;29;20499;-63
2021/06/06 06:21:46;;;;;;;52.80;42.97;;;14.20;99.90;;;;;;4960339;29;20458;-63
2021/06/06 06:24:13;;;;;;;50.30;41.43;;;14.30;99.90;;;;;;4960401;29;20470;-63
2021/06/06 06:26:41;;;;;;;48.40;40.93;;;14.20;99.90;;;;;;4959875;29;20478;-63
2021/06/06 06:29:11;;;;;;;48.90;39.83;;;14.20;99.90;;;;;;4960402;29;20462;-63
2021/06/06 07:09:05;;;;;;;51.57;43.27;;;14.60;99.90;;;;;;5399060;23;20454;-64
2021/06/06 07:11:31;;;;;;;55.13;44.43;;;14.60;99.90;;;;;;4980030;28;20435;-64
2021/06/06 07:13:58;;;;;;;50.27;42.67;;;14.90;99.90;;;;;;4978220;28;20458;-64
2021/06/06 07:16:24;;;;;;;46.00;40.57;;;15.10;99.90;;;;;;4978670;28;20485;-64
2021/06/06 07:18:51;;;;;;;44.90;38.50;;;15.20;99.90;;;;;;4978795;28;20761;-64
2021/06/06 07:21:23;;;;;;;44.57;39.77;;;15.20;99.90;;;;;;4978187;28;20454;-64
2021/06/06 07:23:50;;;;;;;52.10;44.00;;;15.30;99.90;;;;;;4978838;28;20441;-64
2021/06/06 07:26:20;;;;;;;59.07;49.23;;;15.30;99.90;;;;;;4978200;28;20441;-64
2021/06/06 07:28:46;;;;;;;53.73;45.77;;;15.30;99.90;;;;;;4978621;28;20458;-63
2021/06/06 07:31:15;;;;;;;56.03;47.70;;;15.20;99.90;;;;;;4978325;28;20466;-63
2021/06/06 07:33:43;;;;;;;61.10;52.33;;;15.20;99.90;;;;;;4978594;28;20469;-63
2021/06/06 07:36:12;;;;;;;54.73;46.37;;;15.20;99.90;;;;;;4978224;28;20532;-63
2021/06/06 07:38:38;;;;;;;51.40;43.93;;;15.20;99.90;;;;;;4978004;28;20486;-63
2021/06/06 07:41:05;;;;;;;55.17;45.30;;;15.20;99.90;;;;;;4978169;28;20903;-63
2021/06/06 07:43:36;;;;;;;55.63;47.97;;;15.30;99.90;;;;;;4978866;28;20866;-63
2021/06/06 07:46:04;;;;;;;49.63;43.73;;;15.40;99.90;;;;;;4978165;28;20461;-63
2021/06/06 07:48:31;;;;;;;50.33;44.93;;;15.10;99.90;;;;;;4978337;28;20517;-63
2021/06/06 07:50:58;;;;;;;49.50;42.03;;;15.10;99.90;;;;;;4977990;28;20760;-62
2021/06/06 07:53:24;;;;;;;56.70;45.63;;;14.90;99.90;;;;;;4978028;28;20491;-63
2021/06/06 07:55:54;;;;;;;64.17;47.97;;;14.90;99.90;;;;;;4979122;28;20474;-63
2021/06/06 07:58:22;;;;;;;56.20;45.40;;;15.20;99.90;;;;;;4978524;28;20553;-63
2021/06/06 08:00:51;;;;;;;59.43;50.10;;;15.10;99.90;;;;;;4978600;28;20469;-63
2021/06/06 08:03:18;;;;;;;66.50;53.87;;;15.20;99.90;;;;;;4973985;28;21147;-63
2021/06/06 08:05:45;;;;;;;66.80;52.67;;;15.10;99.90;;;;;;4974297;28;20479;-63
2021/06/06 08:08:15;;;;;;;65.50;53.47;;;15.20;99.90;;;;;;4977785;28;20811;-63
2021/06/06 08:10:48;;;;;;;68.73;54.70;;;15.20;99.90;;;;;;4977348;28;20468;-63
2021/06/06 08:13:15;;;;;;;72.67;52.70;;;14.90;99.90;;;;;;4978209;28;20896;-63
2021/06/06 08:15:50;;;;;;;76.80;54.97;;;14.90;99.90;;;;;;4978719;28;20473;-63
2021/06/06 08:18:24;;;;;;;73.20;57.70;;;14.90;99.90;;;;;;4980760;28;20497;-63
2021/06/06 08:20:53;;;;;;;73.83;54.50;;;15.20;99.90;;;;;;4982226;28;20469;-63
2021/06/06 08:23:21;;;;;;;70.80;57.40;;;15.30;99.90;;;;;;4981550;28;20913;-63
2021/06/06 08:25:47;;;;;;;71.60;56.17;;;15.10;99.90;;;;;;4982355;28;20906;-62
2021/06/06 08:28:14;;;;;;;62.50;53.97;;;15.20;99.90;;;;;;4982317;28;20461;-62
2021/06/06 08:30:46;;;;;;;74.53;57.50;;;15.10;99.90;;;;;;4981910;28;20470;-62
2021/06/06 08:33:19;;;;;;;69.60;56.17;;;15.20;99.90;;;;;;4981805;28;20470;-62
2021/06/06 08:35:48;;;;;;;75.77;55.90;;;15.20;99.90;;;;;;4981914;28;20741;-62
2021/06/06 08:38:18;;;;;;;75.80;58.03;;;15.30;99.90;;;;;;4979417;28;20611;-62
2021/06/06 08:40:51;;;;;;;73.43;56.87;;;15.40;99.90;;;;;;4975873;28;20465;-62
2021/06/06 08:43:19;;;;;;;67.60;56.70;;;15.50;99.90;;;;;;4988203;28;20779;-62
2021/06/06 08:45:49;;;;;;;74.90;57.40;;;15.60;99.90;;;;;;4972546;28;20493;-62
2021/06/06 08:48:22;;;;;;;64.70;56.50;;;15.60;99.90;;;;;;4962899;29;20463;-62
2021/06/06 08:50:54;;;;;;;64.03;52.20;;;15.60;99.90;;;;;;4973101;28;20465;-62
2021/06/06 08:53:31;;;;;;;62.20;50.30;;;15.50;99.90;;;;;;4982378;28;20457;-62
2021/06/06 08:56:06;;;;;;;55.87;46.90;;;15.30;99.90;;;;;;4981634;28;20472;-62
2021/06/06 08:58:46;;;;;;;59.30;46.77;;;15.50;99.90;;;;;;4981119;28;20793;-62
2021/06/06 09:01:21;;;;;;;53.93;47.03;;;15.60;99.90;;;;;;4977564;28;20889;-62
2021/06/06 09:03:50;;;;;;;53.30;44.10;;;15.60;99.90;;;;;;4963887;28;20481;-61
2021/06/06 09:06:20;;;;;;;52.63;46.97;;;15.60;99.90;;;;;;4979716;28;20793;-62
2021/06/06 09:08:47;;;;;;;53.23;45.70;;;15.50;99.90;;;;;;4980766;28;20458;-61
2021/06/06 09:11:17;;;;;;;52.30;44.80;;;15.40;99.90;;;;;;4980942;28;20570;-61
2021/06/06 09:13:44;;;;;;;51.50;43.10;;;15.30;99.90;;;;;;4980020;28;20490;-61
2021/06/06 09:16:20;;;;;;;54.90;45.90;;;15.20;99.90;;;;;;4980649;28;20477;-61
2021/06/06 09:19:00;;;;;;;50.37;42.30;;;15.40;99.90;;;;;;4980445;28;20501;-61
2021/06/06 09:21:27;;;;;;;50.93;43.90;;;15.10;99.90;;;;;;4980901;28;20489;-61
2021/06/06 09:24:10;;;;;;;51.40;42.20;;;15.30;99.90;;;;;;4980666;28;20772;-61
2021/06/06 09:26:40;;;;;;;52.17;44.00;;;15.30;99.90;;;;;;4981028;28;20529;-61
2021/06/06 09:29:19;;;;;;;50.97;43.47;;;15.30;99.90;;;;;;4980570;28;20436;-61
2021/06/06 09:31:46;;;;;;;55.57;45.40;;;15.30;99.90;;;;;;4981102;28;20951;-61
2021/06/06 09:34:21;;;;;;;60.20;45.87;;;15.50;99.90;;;;;;4980293;28;20540;-61
2021/06/06 09:37:03;;;;;;;53.67;44.63;;;15.50;99.90;;;;;;4980700;28;20465;-61
2021/06/06 09:39:34;;;;;;;58.57;48.70;;;15.40;99.90;;;;;;4979591;28;20493;-61
2021/06/06 09:42:01;;;;;;;56.93;47.33;;;15.40;99.90;;;;;;4980350;28;20470;-61
2021/06/06 09:44:30;;;;;;;58.80;46.97;;;15.30;99.90;;;;;;4980615;28;20473;-61
2021/06/06 09:47:14;;;;;;;56.90;47.23;;;15.30;99.90;;;;;;4980277;28;20448;-60
2021/06/06 09:49:44;;;;;;;57.67;50.40;;;15.50;99.90;;;;;;4980355;28;20481;-60
2021/06/06 09:52:14;;;;;;;58.77;48.67;;;15.70;99.90;;;;;;4980582;28;20575;-60
2021/06/06 09:54:45;;;;;;;56.63;47.43;;;15.70;99.90;;;;;;4979705;28;20568;-60
2021/06/06 09:57:27;;;;;;;57.83;47.80;;;15.80;99.90;;;;;;4980568;28;20563;-60
2021/06/06 10:00:06;;;;;;;59.20;48.23;;;16.10;99.90;;;;;;4979910;28;20767;-60
2021/06/06 10:02:38;;;;;;;67.37;49.00;;;16.30;99.90;;;;;;4977098;28;20952;-60
2021/06/06 10:05:13;;;;;;;57.37;48.00;;;16.40;99.90;;;;;;4974305;28;20462;-59
2021/06/06 10:07:43;;;;;;;56.90;47.87;;;16.50;99.90;;;;;;4979807;28;20464;-58
2021/06/06 10:10:16;;;;;;;58.87;48.87;;;16.30;99.90;;;;;;4978749;28;20536;-58
2021/06/06 10:12:47;;;;;;;70.93;52.40;;;16.30;99.90;;;;;;4979676;28;20454;-59
2021/06/06 10:15:17;;;;;;;78.90;59.10;;;16.20;99.90;;;;;;4979382;28;20845;-57
2021/06/06 10:17:50;;;;;;;85.73;60.87;;;16.10;99.90;;;;;;4979918;28;20452;-59
2021/06/06 10:20:25;;;;;;;82.67;57.73;;;16.20;99.90;;;;;;4979220;28;20524;-58
2021/06/06 10:23:02;;;;;;;75.27;56.73;;;16.20;99.90;;;;;;4971586;28;20465;-59
2021/06/06 10:25:43;;;;;;;73.70;56.80;;;16.20;99.90;;;;;;4979320;28;20466;-59
2021/06/06 10:28:13;;;;;;;74.77;55.50;;;16.20;99.90;;;;;;4979334;28;20466;-58
2021/06/06 10:30:43;;;;;;;67.57;51.30;;;16.20;99.90;;;;;;4979671;28;20550;-59
2021/06/06 10:33:18;;;;;;;71.50;51.77;;;16.20;99.90;;;;;;4979888;28;20544;-59
2021/06/06 10:35:47;;;;;;;74.13;53.20;;;16.10;99.90;;;;;;4979752;28;20469;-59
2021/06/06 10:38:15;;;;;;;71.73;53.13;;;16.00;99.90;;;;;;4979292;28;20930;-59
2021/06/06 10:40:45;;;;;;;70.43;52.47;;;15.90;99.90;;;;;;4978323;28;20476;-59
2021/06/06 10:43:20;;;;;;;74.33;52.90;;;15.80;99.90;;;;;;4979673;28;20946;-58
2021/06/06 10:45:52;;;;;;;74.73;55.07;;;16.00;99.90;;;;;;4978721;28;20473;-59
2021/06/06 10:48:27;;;;;;;69.90;55.33;;;16.10;99.90;;;;;;4979139;28;20461;-57
2021/06/06 10:51:14;;;;;;;81.20;57.83;;;16.10;99.90;;;;;;4978720;28;20894;-55
2021/06/06 10:53:52;;;;;;;75.97;57.43;;;16.30;99.90;;;;;;4987455;28;20466;-59
2021/06/06 10:56:33;;;;;;;75.17;56.97;;;16.40;99.90;;;;;;4959727;28;20816;-58
2021/06/06 10:59:04;;;;;;;77.87;54.87;;;16.20;99.90;;;;;;4953180;28;20504;-59
2021/06/06 11:01:51;;;;;;;71.33;56.50;;;16.10;99.90;;;;;;4959909;28;20506;-59
2021/06/06 11:04:20;;;;;;;74.13;56.00;;;15.90;99.90;;;;;;4959077;28;20501;-59
2021/06/06 11:07:24;;;;;;;75.43;58.30;;;15.90;99.90;;;;;;4977333;28;20951;-58
2021/06/06 11:10:27;;;;;;;77.73;57.30;;;15.80;99.90;;;;;;4977884;28;20865;-58
2021/06/06 11:13:00;;;;;;;75.47;56.90;;;16.00;99.90;;;;;;4969631;28;20489;-57
2021/06/06 11:15:33;;;;;;;66.60;52.03;;;16.20;99.90;;;;;;4977526;28;20462;-57
2021/06/06 11:18:19;;;;;;;72.03;51.57;;;16.40;99.90;;;;;;4977980;28;20665;-59
2021/06/06 11:20:53;;;;;;;57.53;46.87;;;16.50;99.90;;;;;;4977286;28;20908;-56
2021/06/06 11:23:34;;;;;;;68.60;50.50;;;16.60;99.90;;;;;;4977784;28;20470;-59
2021/06/06 11:26:14;;;;;;;58.37;51.47;;;16.40;99.90;;;;;;4977988;28;20469;-57
2021/06/06 11:28:43;;;;;;;64.20;50.33;;;16.60;99.90;;;;;;4978901;28;20472;-57
2021/06/06 11:31:24;;;;;;;55.50;47.50;;;16.60;99.90;;;;;;4978080;28;20743;-54
2021/06/06 11:34:02;;;;;;;53.50;46.70;;;17.00;99.90;;;;;;4978314;28;20903;-50
2021/06/06 11:36:35;;;;;;;50.73;44.60;;;17.30;99.90;;;;;;4977512;28;20469;-55
2021/06/06 11:39:18;;;;;;;56.30;47.00;;;17.40;99.90;;;;;;4978385;28;20469;-54
2021/06/06 11:41:46;;;;;;;50.17;44.53;;;17.50;99.90;;;;;;4978804;28;20472;-54
2021/06/06 11:44:27;;;;;;;54.00;45.50;;;17.40;99.90;;;;;;4978539;28;20467;-53
2021/06/06 11:47:08;;;;;;;50.57;45.00;;;17.40;99.90;;;;;;4970903;28;20476;-56
2021/06/06 11:49:46;;;;;;;49.93;44.57;;;17.30;99.90;;;;;;4978398;28;20472;-58
2021/06/06 11:52:16;;;;;;;50.03;44.63;;;17.00;99.90;;;;;;4979470;28;20444;-56
2021/06/06 11:54:52;;;;;;;45.97;40.67;;;17.00;99.90;;;;;;4982485;28;20473;-58
2021/06/06 11:57:24;;;;;;;48.70;41.63;;;17.10;99.90;;;;;;4982224;28;20439;-57
2021/06/06 11:59:54;;;;;;;47.63;41.87;;;16.80;99.90;;;;;;4982146;28;20491;-58
2021/06/06 12:02:31;;;;;;;53.63;41.67;;;16.70;1.00;;;;;;4981126;28;20455;-58
2021/06/06 12:05:10;;;;;;;47.27;41.43;;;16.80;1.00;;;;;;4966757;28;20473;-57
2021/06/06 12:07:41;;;;;;;46.00;41.17;;;16.70;1.00;;;;;;5000750;28;20534;-55
2021/06/06 12:10:21;;;;;;;49.90;42.80;;;16.60;1.00;;;;;;4982662;28;20505;-57
2021/06/06 12:12:51;;;;;;;48.53;39.50;;;16.60;1.00;;;;;;4981249;28;20458;-57
2021/06/06 12:15:24;;;;;;;46.07;40.00;;;16.60;1.00;;;;;;4981389;28;20491;-58
2021/06/06 12:18:05;;;;;;;39.83;35.20;;;16.80;1.00;;;;;;4981372;28;20453;-58
2021/06/06 12:20:33;;;;;;;46.13;37.77;;;16.70;1.00;;;;;;4981042;28;20461;-57
2021/06/06 12:23:14;;;;;;;45.67;38.43;;;16.70;1.00;;;;;;4990214;28;20868;-58
2021/06/06 12:25:45;;;;;;;42.43;37.33;;;16.80;1.00;;;;;;5001417;28;20461;-57
2021/06/06 12:28:18;;;;;;;47.57;40.60;;;16.70;1.00;;;;;;5000815;28;20465;-57
2021/06/06 12:30:56;;;;;;;43.97;39.53;;;16.60;1.00;;;;;;4994925;28;20469;-51
2021/06/06 12:33:32;;;;;;;44.20;39.27;;;16.80;1.00;;;;;;4970615;28;20728;-55
2021/06/06 12:36:05;;;;;;;41.93;37.53;;;16.70;1.00;;;;;;5001045;28;20460;-59
2021/06/06 12:38:32;;;;;;;44.73;39.33;;;16.50;99.90;;;;;;4990159;28;20497;-58
2021/06/06 12:41:02;;;;;;;45.60;39.57;;;16.20;99.90;;;;;;4981202;28;20465;-58
2021/06/06 12:43:32;;;;;;;47.20;40.70;;;16.30;99.90;;;;;;4981652;28;20491;-58
2021/06/06 12:46:07;;;;;;;47.10;39.90;;;16.40;99.90;;;;;;4981136;28;20469;-58
2021/06/06 12:48:36;;;;;;;46.47;41.37;;;16.70;99.90;;;;;;4981215;28;20471;-58
2021/06/06 12:51:15;;;;;;;44.57;39.73;;;17.10;99.90;;;;;;4980722;28;20469;-57
2021/06/06 12:53:43;;;;;;;45.03;38.50;;;17.40;99.90;;;;;;4981625;28;20465;-55
2021/06/06 12:56:14;;;;;;;46.03;39.40;;;17.50;99.90;;;;;;4981307;28;20524;-54
2021/06/06 12:58:46;;;;;;;42.20;37.73;;;17.60;99.90;;;;;;4981478;28;20567;-53
2021/06/06 13:01:25;;;;;;;43.10;38.47;;;17.40;99.90;;;;;;4980769;28;20480;-57
2021/06/06 13:03:55;;;;;;;41.10;36.80;;;17.30;99.90;;;;;;4966966;28;20484;-54
2021/06/06 13:06:36;;;;;;;40.90;36.60;;;17.10;99.90;;;;;;4973243;28;20451;-54
2021/06/06 13:09:27;;;;;;;43.93;39.33;;;16.90;99.90;;;;;;4977456;28;20452;-56
2021/06/06 13:12:17;;;;;;;46.77;37.93;;;16.90;99.90;;;;;;4956813;28;20541;-57
2021/06/06 13:14:53;;;;;;;47.07;39.10;;;16.90;99.90;;;;;;4979298;28;20466;-55
2021/06/06 13:17:33;;;;;;;46.03;41.00;;;17.30;99.90;;;;;;4980449;28;20464;-55
2021/06/06 13:20:23;;;;;;;43.20;38.70;;;17.70;99.90;;;;;;4980751;28;20567;-53
2021/06/06 13:23:00;;;;;;;46.07;41.33;;;17.80;99.90;;;;;;4974511;28;20518;-57